Terminal Aerodrome Forecast
Issued by NWS

Home | Current Version | Previous Version | Graphics & Text | Print | Product List | Glossary On
Versions: 1 2 3 4 5 6 7 8 9 10 11 12 13 14 15 16 17 18 19 20 21 22 23 24 25 26
050
FTUS43 KBIS 211128
TAFJMS
TAF
KJMS 211128Z 2112/2212 14008KT P6SM SCT150
     FM211500 15017G25KT P6SM FEW250
     FM220300 16011KT P6SM FEW250
     FM220900 16012KT P6SM SCT150 WS020/18040KT=

USA.gov is the U.S. government's official web portal to all federal, state and local government web resources and services.